Time;durP1;ratioP1;P1;durP2;ratioP2;P2;SDS_P1;SDS_P2;PMS_P1;PMS_P2;Temp;Humidity;BMP_temperature;BMP_pressure;BME280_temperature;BME280_humidity;BME280_pressure;Samples;Min_cycle;Max_cycle;Signal;HPM_P1;HPM_P2
2022/04/02 00:01:21;;;;;;;5.97;2.95;;;;;;;1.80;76.45;101876.34;5082993;28;20516;-75
2022/04/02 00:03:52;;;;;;;4.15;2.28;;;;;;;1.87;75.85;101870.78;5081609;28;20087;-75
2022/04/02 00:06:22;;;;;;;5.03;3.05;;;;;;;1.88;76.00;101861.34;5083142;28;20045;-76
2022/04/02 00:08:52;;;;;;;5.70;2.75;;;;;;;1.80;76.30;101862.53;5081912;28;20049;-71
2022/04/02 00:11:20;;;;;;;6.05;2.97;;;;;;;1.72;76.70;101867.19;5080942;28;20048;-71
2022/04/02 00:13:54;;;;;;;9.57;3.13;;;;;;;1.80;76.42;101857.34;5080224;28;20401;-72
2022/04/02 00:16:23;;;;;;;6.25;3.20;;;;;;;1.75;76.38;101857.06;5080508;28;20052;-72
2022/04/02 00:18:52;;;;;;;6.50;2.72;;;;;;;1.69;76.71;101863.53;5079997;28;20056;-71
2022/04/02 00:21:21;;;;;;;6.90;2.90;;;;;;;1.69;76.47;101859.25;5078045;28;20048;-72
2022/04/02 00:23:52;;;;;;;6.95;2.70;;;;;;;1.72;76.35;101861.13;5077004;28;20047;-72
2022/04/02 00:26:21;;;;;;;5.97;2.55;;;;;;;1.66;76.58;101865.91;5076635;28;20048;-72
2022/04/02 00:28:51;;;;;;;11.77;3.55;;;;;;;1.71;75.71;101856.75;5075057;28;20453;-71
2022/04/02 00:31:22;;;;;;;7.30;2.78;;;;;;;1.66;76.59;101864.22;5075878;28;20067;-72
2022/04/02 00:33:53;;;;;;;8.38;2.53;;;;;;;1.73;76.25;101862.94;5075851;28;20052;-71
2022/04/02 00:36:23;;;;;;;6.97;2.50;;;;;;;1.73;76.37;101865.50;5075831;28;20044;-75
2022/04/02 00:38:52;;;;;;;6.75;3.00;;;;;;;1.76;76.56;101870.88;5076031;28;20090;-75
2022/04/02 00:41:20;;;;;;;7.43;3.80;;;;;;;1.83;77.60;101854.97;5076345;28;20131;-75
2022/04/02 00:43:57;;;;;;;8.52;3.05;;;;;;;1.90;78.23;101860.63;5075999;28;20131;-75
2022/04/02 00:46:25;;;;;;;7.57;3.03;;;;;;;1.85;77.89;101851.69;5076282;28;20094;-75
2022/04/02 00:48:54;;;;;;;15.60;3.38;;;;;;;1.89;78.04;101858.84;5075780;28;20139;-71
2022/04/02 00:51:24;;;;;;;8.05;2.90;;;;;;;1.94;77.96;101856.56;5075493;28;20086;-74
2022/04/02 00:53:52;;;;;;;6.88;3.03;;;;;;;1.91;78.14;101858.94;5075667;28;20456;-75
2022/04/02 00:56:23;;;;;;;9.73;2.75;;;;;;;1.89;78.22;101865.72;5075618;28;20052;-75
2022/04/02 00:58:52;;;;;;;9.15;3.22;;;;;;;1.89;78.41;101863.13;5075736;28;20117;-75
2022/04/02 01:01:20;;;;;;;8.90;3.03;;;;;;;1.88;78.12;101864.81;5075762;28;20452;-74
2022/04/02 01:03:52;;;;;;;9.88;3.08;;;;;;;1.90;78.40;101862.31;5075108;28;20045;-77
2022/04/02 01:06:21;;;;;;;9.75;3.80;;;;;;;1.99;77.16;101870.69;5075138;28;20052;-76
2022/04/02 01:09:00;;;;;;;7.75;3.40;;;;;;;2.01;77.49;101875.94;5075589;28;20079;-77
2022/04/02 01:11:36;;;;;;;9.38;3.58;;;;;;;2.04;77.50;101869.28;5074750;28;20052;-73
2022/04/02 01:14:05;;;;;;;9.80;3.55;;;;;;;2.02;78.17;101872.56;5075512;28;20055;-72
2022/04/02 01:16:34;;;;;;;5.68;3.00;;;;;;;1.94;79.42;101867.78;5074563;28;20473;-74
2022/04/02 01:19:03;;;;;;;6.15;2.78;;;;;;;1.95;79.49;101868.69;5075168;28;20053;-75
2022/04/02 01:21:32;;;;;;;7.85;3.42;;;;;;;1.96;79.83;101871.38;5075637;28;20064;-75
2022/04/02 01:24:02;;;;;;;6.07;3.10;;;;;;;1.94;80.24;101872.06;5075252;28;20120;-69
2022/04/02 01:26:32;;;;;;;7.93;3.70;;;;;;;2.01;80.02;101863.91;5074584;28;20453;-74
2022/04/02 01:29:01;;;;;;;8.77;3.47;;;;;;;1.99;80.27;101870.69;5075105;28;20076;-70
2022/04/02 01:31:29;;;;;;;6.97;2.95;;;;;;;2.09;79.87;101861.78;5074466;28;20153;-69
2022/04/02 01:33:57;;;;;;;6.78;3.00;;;;;;;2.14;79.85;101874.22;5075053;28;20056;-74
2022/04/02 01:36:26;;;;;;;9.20;3.17;;;;;;;2.09;80.76;101865.25;5074947;28;20056;-74
2022/04/02 01:38:54;;;;;;;8.80;3.38;;;;;;;2.15;79.80;101857.88;5074901;28;20045;-75
2022/04/02 01:41:23;;;;;;;9.15;3.53;;;;;;;2.03;80.67;101867.50;5074448;28;20449;-74
2022/04/02 01:43:54;;;;;;;6.43;3.05;;;;;;;2.03;80.92;101867.50;5074662;28;20056;-73
2022/04/02 01:46:23;;;;;;;7.50;3.28;;;;;;;2.09;80.34;101862.66;5075570;28;20088;-70
2022/04/02 01:48:54;;;;;;;7.32;3.30;;;;;;;2.03;80.42;101867.50;5074570;28;20055;-72
2022/04/02 01:51:22;;;;;;;7.13;3.40;;;;;;;2.04;80.39;101877.03;5074941;28;20102;-70
2022/04/02 01:53:53;;;;;;;6.70;3.45;;;;;;;2.06;80.01;101867.69;5074017;28;20063;-70
2022/04/02 01:56:22;;;;;;;8.95;3.53;;;;;;;2.01;80.25;101874.25;5074417;28;20049;-70
2022/04/02 01:58:52;;;;;;;8.20;3.55;;;;;;;1.93;80.89;101870.28;5074731;28;20084;-74
2022/04/02 02:01:21;;;;;;;9.35;3.05;;;;;;;1.88;80.67;101871.69;5074350;28;20516;-70
2022/04/02 02:03:51;;;;;;;8.90;3.78;;;;;;;1.81;80.39;101879.84;5074218;28;20048;-70
2022/04/02 02:06:20;;;;;;;9.15;2.95;;;;;;;1.81;80.64;101875.56;5074025;28;20036;-69
2022/04/02 02:08:52;;;;;;;8.32;2.97;;;;;;;1.69;81.54;101879.94;5074141;28;20121;-70
2022/04/02 02:11:21;;;;;;;7.85;3.72;;;;;;;1.64;81.18;101882.22;5075752;28;20395;-75
2022/04/02 02:13:52;;;;;;;8.88;3.78;;;;;;;1.67;81.39;101876.34;5075386;28;20045;-74
2022/04/02 02:16:21;;;;;;;8.60;3.75;;;;;;;1.65;81.02;101877.94;5076100;28;20048;-74
2022/04/02 02:18:52;;;;;;;8.20;3.42;;;;;;;1.61;81.38;101882.03;5075966;28;20052;-74
2022/04/02 02:21:21;;;;;;;7.93;3.55;;;;;;;1.58;81.75;101876.66;5076536;28;20102;-74
2022/04/02 02:23:52;;;;;;;8.65;3.22;;;;;;;1.51;81.51;101874.44;5075429;28;20131;-70
2022/04/02 02:26:20;;;;;;;6.35;2.85;;;;;;;1.53;81.33;101877.13;5074538;28;20127;-71
2022/04/02 02:29:06;;;;;;;7.63;3.17;;;;;;;1.50;81.39;101882.09;5074225;28;20060;-71
2022/04/02 02:31:35;;;;;;;8.90;3.20;;;;;;;1.47;82.18;101885.38;5074552;28;20044;-69
2022/04/02 02:36:53;;;;;;;6.30;3.17;;;;;;;1.47;82.19;101882.78;5031102;28;20128;-70
2022/04/02 02:39:24;;;;;;;10.05;3.88;;;;;;;1.50;82.90;101887.28;5074560;28;20144;-70
2022/04/02 02:41:52;;;;;;;7.57;3.70;;;;;;;1.50;82.68;101890.75;5074329;28;20058;-69
2022/04/02 02:44:21;;;;;;;7.97;3.58;;;;;;;1.49;83.38;101886.38;5074925;28;20045;-70
2022/04/02 02:46:52;;;;;;;10.68;3.50;;;;;;;1.46;83.73;101890.44;5074939;28;20045;-70
2022/04/02 02:49:20;;;;;;;4.97;2.92;;;;;;;1.57;82.90;101895.53;5075262;28;20127;-70
2022/04/02 02:51:50;;;;;;;8.70;4.00;;;;;;;1.53;82.49;101885.78;5074762;28;20053;-70
2022/04/02 02:54:21;;;;;;;10.05;3.40;;;;;;;1.48;82.39;101900.09;5078548;28;20052;-69
2022/04/02 02:56:53;;;;;;;8.23;3.58;;;;;;;1.46;82.48;101898.22;5077892;28;20068;-70
2022/04/02 02:59:24;;;;;;;10.10;3.58;;;;;;;1.39;82.72;101904.66;5079213;28;20110;-70
2022/04/02 03:01:52;;;;;;;10.75;3.97;;;;;;;1.37;82.42;101901.06;5078808;28;20044;-71
2022/04/02 03:04:21;;;;;;;9.68;3.58;;;;;;;1.48;82.44;101896.63;5079257;28;20052;-71
2022/04/02 03:06:52;;;;;;;7.32;3.75;;;;;;;1.47;82.61;101907.75;5079645;28;20044;-71
2022/04/02 03:09:20;;;;;;;11.88;4.03;;;;;;;1.39;82.58;101896.00;5080811;28;20045;-71
2022/04/02 03:11:51;;;;;;;9.32;3.60;;;;;;;1.38;83.36;101897.69;5081536;28;20072;-71
2022/04/02 03:14:20;;;;;;;8.70;3.40;;;;;;;1.39;82.98;101894.31;5082042;28;20090;-71
2022/04/02 03:16:56;;;;;;;8.48;3.45;;;;;;;1.32;83.00;101894.69;5081947;28;20048;-71
2022/04/02 03:19:25;;;;;;;5.90;3.40;;;;;;;1.25;83.40;101897.66;5080781;28;20072;-70
2022/04/02 03:21:53;;;;;;;6.13;3.33;;;;;;;1.28;83.74;101903.03;5080445;28;20049;-71
2022/04/02 03:24:23;;;;;;;9.10;3.90;;;;;;;1.30;83.91;101893.69;5080834;28;20123;-71
2022/04/02 03:26:53;;;;;;;11.10;4.35;;;;;;;1.29;83.90;101897.09;5079802;28;20044;-70
2022/04/02 03:29:24;;;;;;;8.13;4.22;;;;;;;1.22;84.04;101902.63;5079595;28;20049;-70
2022/04/02 03:31:54;;;;;;;7.75;3.58;;;;;;;1.23;84.72;101902.72;5080241;28;20048;-70
2022/04/02 03:34:24;;;;;;;12.55;4.88;;;;;;;1.29;84.74;101902.25;5079438;28;20048;-69
2022/04/02 03:36:52;;;;;;;10.63;4.35;;;;;;;1.25;84.98;101898.56;5078334;28;20109;-71
2022/04/02 03:39:20;;;;;;;11.48;4.65;;;;;;;1.21;85.19;101903.41;5077552;28;20048;-71
2022/04/02 03:41:53;;;;;;;8.70;3.80;;;;;;;1.16;85.76;101904.78;5076577;28;20070;-70
2022/04/02 03:44:21;;;;;;;8.73;3.72;;;;;;;1.17;85.38;101906.59;5077036;28;20047;-70
2022/04/02 03:49:35;;;;;;;6.82;3.08;;;;;;;1.04;86.44;101904.00;5073257;28;20449;-71
2022/04/02 03:52:09;;;;;;;6.72;3.42;;;;;;;0.96;86.37;101906.94;5076831;28;20070;-71
2022/04/02 03:54:38;;;;;;;;;;;;;;;1.06;86.41;101913.59;5077336;28;20076;-69
2022/04/02 03:57:08;;;;;;;8.98;3.50;;;;;;;1.01;85.95;101906.38;5076165;28;19920;-70
2022/04/02 03:59:37;;;;;;;6.63;3.50;;;;;;;0.94;86.85;101905.94;5076844;28;20061;-71
2022/04/02 04:02:06;;;;;;;7.47;3.80;;;;;;;0.93;86.84;101909.31;5076560;28;20052;-72
2022/04/02 04:04:36;;;;;;;8.13;3.80;;;;;;;0.92;86.44;101906.63;5076467;28;20123;-76
2022/04/02 04:07:08;;;;;;;7.90;3.80;;;;;;;0.85;87.47;101907.91;5076544;28;20048;-76
2022/04/02 04:09:37;;;;;;;9.73;4.10;;;;;;;0.82;87.57;101915.44;5076833;28;20437;-75
2022/04/02 04:12:06;;;;;;;11.60;4.25;;;;;;;0.78;88.12;101917.69;5076713;28;20047;-74
2022/04/02 04:14:34;;;;;;;10.20;3.80;;;;;;;0.74;88.01;101913.09;5077239;28;20123;-75
2022/04/02 04:17:02;;;;;;;8.75;4.13;;;;;;;0.67;87.85;101923.78;5076803;28;20090;-75
2022/04/02 04:19:31;;;;;;;10.68;4.18;;;;;;;0.64;88.03;101937.38;5076620;28;20071;-75
2022/04/02 04:22:02;;;;;;;9.05;4.35;;;;;;;0.58;87.90;101935.28;5077688;28;20102;-75
2022/04/02 04:24:31;;;;;;;10.50;4.38;;;;;;;0.53;87.76;101939.22;5077954;28;20186;-75
2022/04/02 04:26:59;;;;;;;8.00;4.18;;;;;;;0.46;88.64;101934.41;5077168;28;20495;-76
2022/04/02 04:29:27;;;;;;;10.38;4.25;;;;;;;0.40;88.90;101940.81;5077337;28;20052;-76
2022/04/02 04:31:55;;;;;;;11.23;4.10;;;;;;;0.40;88.03;101944.28;5076184;28;20056;-71
2022/04/02 04:34:23;;;;;;;9.85;4.90;;;;;;;0.38;88.77;101942.38;5076112;28;20052;-71
2022/04/02 04:36:52;;;;;;;9.10;5.03;;;;;;;0.33;89.27;101939.47;5076010;28;20048;-76
2022/04/02 04:39:22;;;;;;;10.20;4.82;;;;;;;0.30;89.49;101953.06;5076406;28;20051;-75
2022/04/02 04:41:52;;;;;;;10.85;4.90;;;;;;;0.33;89.03;101954.97;5075764;28;20056;-75
2022/04/02 04:44:21;;;;;;;9.93;4.85;;;;;;;0.31;88.95;101947.09;5076159;28;20094;-75
2022/04/02 04:46:52;;;;;;;9.05;4.65;;;;;;;0.26;89.41;101953.63;5076093;28;20056;-76
2022/04/02 04:49:20;;;;;;;11.55;4.55;;;;;;;0.26;89.96;101961.34;5076628;28;20115;-76
2022/04/02 04:51:58;;;;;;;8.68;4.13;;;;;;;0.25;89.71;101958.66;5075970;28;20052;-74
2022/04/02 04:54:27;;;;;;;10.13;3.67;;;;;;;0.23;89.83;101966.28;5075991;28;20439;-75
2022/04/02 04:56:55;;;;;;;7.35;4.05;;;;;;;0.18;89.26;101962.50;5076117;28;20049;-75
2022/04/02 04:59:23;;;;;;;11.20;4.35;;;;;;;0.21;89.29;101965.28;5076005;28;20052;-75
2022/04/02 05:01:52;;;;;;;10.13;4.38;;;;;;;0.21;89.27;101975.59;5075360;28;20048;-75
2022/04/02 05:04:20;;;;;;;7.38;4.05;;;;;;;0.20;89.63;101973.81;5075736;28;20053;-75
2022/04/02 05:06:53;;;;;;;9.38;4.25;;;;;;;0.17;89.52;101973.59;5075812;28;20381;-75
2022/04/02 05:09:21;;;;;;;12.93;4.63;;;;;;;0.23;89.76;101976.63;5075962;28;20122;-75
2022/04/02 05:11:53;;;;;;;9.27;4.93;;;;;;;0.22;89.49;101973.94;5075436;28;20048;-74
2022/04/02 05:14:21;;;;;;;9.55;4.20;;;;;;;0.20;89.56;101978.97;5075813;28;20095;-75
2022/04/02 05:16:51;;;;;;;10.88;4.80;;;;;;;0.25;89.42;101976.72;5074898;28;20044;-75
2022/04/02 05:19:22;;;;;;;10.32;3.97;;;;;;;0.23;89.13;101981.78;5075246;28;20092;-75
2022/04/02 05:21:53;;;;;;;8.45;4.82;;;;;;;0.27;89.11;101985.47;5075070;28;20083;-75
2022/04/02 05:24:22;;;;;;;7.72;4.03;;;;;;;0.27;88.94;101981.22;5075658;28;20143;-75
2022/04/02 05:26:52;;;;;;;8.38;3.92;;;;;;;0.24;88.56;101986.16;5075191;28;20048;-75
2022/04/02 05:29:23;;;;;;;7.30;3.78;;;;;;;0.24;88.78;101987.84;5075597;28;20092;-75
2022/04/02 05:31:54;;;;;;;7.80;4.03;;;;;;;0.23;89.20;101989.50;5075399;28;20044;-75
2022/04/02 05:34:23;;;;;;;6.97;3.33;;;;;;;0.29;88.85;101991.66;5075317;28;20128;-74
2022/04/02 05:36:54;;;;;;;9.27;4.13;;;;;;;0.35;88.99;101988.63;5075751;28;20120;-75
2022/04/02 05:39:25;;;;;;;8.43;4.20;;;;;;;0.36;88.83;101998.16;5075346;28;20059;-75
2022/04/02 05:41:59;;;;;;;9.52;4.68;;;;;;;0.36;88.86;101995.56;5075070;28;20207;-75
2022/04/02 05:44:30;;;;;;;11.32;5.25;;;;;;;0.42;88.59;102001.19;5075795;28;20436;-74
2022/04/02 05:46:58;;;;;;;13.00;4.65;;;;;;;0.41;88.44;102007.13;5075347;28;20102;-70
2022/04/02 05:49:52;;;;;;;7.88;4.53;;;;;;;0.39;88.27;102014.75;5074389;28;20070;-71
2022/04/02 05:52:20;;;;;;;12.18;4.05;;;;;;;0.46;88.31;102010.94;5075153;28;20094;-70
2022/04/02 05:54:51;;;;;;;8.48;4.00;;;;;;;0.46;87.81;102014.41;5074947;28;20131;-76
2022/04/02 05:57:24;;;;;;;11.18;4.20;;;;;;;0.49;87.94;102017.22;5075891;28;20060;-77
2022/04/02 05:59:54;;;;;;;9.13;4.60;;;;;;;0.53;87.73;102023.50;5074951;28;20122;-75
2022/04/02 06:02:22;;;;;;;7.88;4.20;;;;;;;0.58;87.61;102016.97;5075409;28;20139;-74
2022/04/02 06:04:54;;;;;;;9.10;3.90;;;;;;;0.52;87.28;102032.91;5075226;28;20057;-76
2022/04/02 06:07:22;;;;;;;14.35;4.72;;;;;;;0.52;87.07;102040.66;5075293;28;20036;-71
2022/04/02 06:09:52;;;;;;;11.25;4.10;;;;;;;0.52;86.58;102027.75;5074907;28;20063;-71
2022/04/02 06:12:20;;;;;;;11.38;4.93;;;;;;;0.52;87.01;102034.59;5074840;28;20041;-70
2022/04/02 06:14:59;;;;;;;8.85;4.38;;;;;;;0.60;86.60;102038.63;5074527;28;20098;-71
2022/04/02 06:17:27;;;;;;;6.90;3.80;;;;;;;0.68;86.11;102045.25;5074953;28;20065;-71
2022/04/02 06:19:58;;;;;;;11.25;4.18;;;;;;;0.78;85.58;102042.53;5075281;28;20091;-71
2022/04/02 06:22:26;;;;;;;9.30;4.25;;;;;;;1.00;85.32;102046.66;5075496;28;20056;-71
2022/04/02 06:24:55;;;;;;;8.07;3.90;;;;;;;1.23;84.62;102052.63;5076660;28;20467;-71
2022/04/02 06:27:23;;;;;;;11.50;4.15;;;;;;;1.48;84.37;102041.38;5080719;28;20127;-71
2022/04/02 06:29:52;;;;;;;11.57;4.85;;;;;;;1.68;83.11;102038.47;5081631;28;20079;-71
2022/04/02 06:32:23;;;;;;;7.65;4.20;;;;;;;1.75;82.20;102045.84;5083160;28;20048;-72
2022/04/02 06:34:55;;;;;;;11.60;4.55;;;;;;;1.84;81.55;102053.34;5083031;28;20071;-71
2022/04/02 06:37:23;;;;;;;11.13;4.20;;;;;;;1.91;81.13;102059.03;5083293;28;20051;-72
2022/04/02 06:39:55;;;;;;;10.57;4.47;;;;;;;1.99;80.09;102058.66;5082580;28;20050;-72
2022/04/02 06:42:23;;;;;;;9.20;4.65;;;;;;;2.06;80.36;102066.03;5082810;28;20048;-71
2022/04/02 06:44:52;;;;;;;9.02;4.85;;;;;;;2.11;78.85;102073.28;5082524;28;20060;-70
2022/04/02 06:47:27;;;;;;;10.30;4.80;;;;;;;2.20;78.46;102063.53;5080472;28;20045;-75
2022/04/02 06:49:55;;;;;;;13.30;4.18;;;;;;;2.35;78.11;102070.53;5079334;28;20056;-75
2022/04/02 06:52:24;;;;;;;8.70;4.10;;;;;;;2.42;77.83;102071.03;5078327;28;20041;-72
2022/04/02 06:54:52;;;;;;;7.80;4.43;;;;;;;2.48;76.84;102075.69;5077722;28;20055;-71
2022/04/02 06:57:22;;;;;;;10.85;4.32;;;;;;;2.57;76.78;102078.91;5077951;28;20048;-71
2022/04/02 06:59:52;;;;;;;10.13;4.53;;;;;;;2.77;76.33;102080.19;5078144;28;20075;-75
2022/04/02 07:02:21;;;;;;;9.68;4.07;;;;;;;2.83;75.85;102080.56;5078258;28;20078;-75
2022/04/02 07:04:54;;;;;;;11.30;4.50;;;;;;;2.94;74.83;102093.41;5077453;28;20044;-72
2022/04/02 07:07:22;;;;;;;10.50;4.68;;;;;;;3.23;74.00;102089.16;5077515;28;20041;-72
2022/04/02 07:09:53;;;;;;;9.23;4.93;;;;;;;3.24;73.02;102084.06;5077405;28;20055;-73
2022/04/02 07:12:23;;;;;;;8.98;4.95;;;;;;;3.43;72.95;102093.88;5077633;28;20048;-72
2022/04/02 07:14:52;;;;;;;12.05;4.78;;;;;;;3.61;71.93;102099.31;5077583;28;20127;-71
2022/04/02 07:17:20;;;;;;;8.00;4.53;;;;;;;3.85;71.72;102098.19;5078161;28;20123;-75
2022/04/02 07:19:57;;;;;;;12.10;5.13;;;;;;;4.16;70.92;102097.44;5077851;28;20048;-76
2022/04/02 07:22:28;;;;;;;10.95;4.78;;;;;;;4.26;69.28;102098.03;5077783;28;20084;-76
2022/04/02 07:24:57;;;;;;;11.50;4.30;;;;;;;4.39;69.18;102098.75;5077711;28;20048;-77
2022/04/02 07:27:29;;;;;;;9.52;4.25;;;;;;;4.43;69.60;102104.22;5077415;28;20045;-76
2022/04/02 07:29:57;;;;;;;10.98;4.43;;;;;;;4.54;68.59;102110.91;5077553;28;20048;-75
2022/04/02 07:32:26;;;;;;;14.48;5.32;;;;;;;4.59;68.52;102112.09;5077904;28;20052;-77
2022/04/02 07:34:54;;;;;;;12.07;4.72;;;;;;;4.77;67.73;102109.63;5077823;28;20059;-77
2022/04/02 07:37:37;;;;;;;9.10;4.72;;;;;;;4.66;65.27;102107.22;5077415;28;20044;-77
2022/04/02 07:40:09;;;;;;;11.00;4.30;;;;;;;4.78;65.77;102114.03;5077737;28;20040;-76
2022/04/02 07:42:45;;;;;;;9.52;4.78;;;;;;;4.91;65.07;102110.41;5077416;28;20050;-76
2022/04/02 07:45:28;;;;;;;6.95;4.45;;;;;;;5.23;64.54;102119.97;5077601;28;20060;-75
2022/04/02 07:47:57;;;;;;;12.23;5.00;;;;;;;5.44;64.07;102109.84;5076479;28;20426;-72
2022/04/02 07:50:26;;;;;;;12.32;4.93;;;;;;;5.55;62.96;102122.63;5076774;28;20071;-72
2022/04/02 07:52:57;;;;;;;11.27;4.03;;;;;;;5.65;62.63;102110.09;5076681;28;20186;-72
2022/04/02 07:55:26;;;;;;;13.23;4.80;;;;;;;5.75;60.99;102109.78;5076589;28;20493;-72
2022/04/02 07:57:58;;;;;;;10.23;4.10;;;;;;;5.81;61.15;102113.59;5076753;28;20131;-72
2022/04/02 08:00:27;;;;;;;8.27;4.20;;;;;;;5.79;60.01;102114.34;5076607;28;20152;-74
2022/04/02 08:02:56;;;;;;;10.43;3.47;;;;;;;5.47;59.39;102110.91;5077018;28;20127;-75
2022/04/02 08:05:24;;;;;;;10.15;3.85;;;;;;;5.41;58.58;102120.97;5076770;28;20393;-73
2022/04/02 08:07:55;;;;;;;8.60;3.45;;;;;;;5.51;58.58;102123.28;5077182;28;20087;-75
2022/04/02 08:10:27;;;;;;;9.13;3.60;;;;;;;5.96;59.11;102123.06;5076870;28;20063;-73
2022/04/02 08:12:57;;;;;;;9.00;3.85;;;;;;;5.73;56.60;102124.44;5076982;28;20087;-77
2022/04/02 08:15:26;;;;;;;8.07;3.33;;;;;;;6.22;56.31;102121.00;5077018;28;20052;-74
2022/04/02 08:17:56;;;;;;;11.10;3.85;;;;;;;6.26;55.08;102123.72;5077344;28;20048;-73
2022/04/02 08:20:27;;;;;;;6.22;2.60;;;;;;;6.40;51.91;102128.81;5076745;28;20048;-74
2022/04/02 08:22:56;;;;;;;4.53;2.22;;;;;;;6.22;50.49;102120.09;5077166;28;20064;-74
2022/04/02 08:25:26;;;;;;;8.00;2.50;;;;;;;5.87;49.61;102128.66;5077378;28;20052;-71
2022/04/02 08:28:07;;;;;;;7.57;2.25;;;;;;;5.36;50.06;102132.84;5077054;28;20048;-72
2022/04/02 08:30:39;;;;;;;8.07;2.65;;;;;;;4.91;50.33;102142.50;5076994;28;20057;-72
2022/04/02 08:33:33;;;;;;;8.00;2.42;;;;;;;5.13;51.48;102143.72;5077070;28;20075;-72
2022/04/02 08:36:15;;;;;;;4.85;2.60;;;;;;;5.16;50.34;102149.09;5076895;28;20131;-75
2022/04/02 08:38:59;;;;;;;5.97;2.33;;;;;;;4.59;51.06;102148.47;5076890;28;20052;-75
2022/04/02 08:42:15;;;;;;;2.72;2.00;;;;;;;4.41;50.94;102159.47;5076610;28;20067;-76
2022/04/02 08:45:09;;;;;;;4.00;2.00;;;;;;;4.10;50.36;102154.19;5072440;28;20060;-72
2022/04/02 08:48:11;;;;;;;7.38;2.35;;;;;;;3.98;50.72;102166.41;5075974;28;20060;-71
2022/04/02 08:50:51;;;;;;;5.20;2.47;;;;;;;3.90;51.61;102172.03;5074891;28;20067;-72
2022/04/02 08:53:23;;;;;;;5.15;2.28;;;;;;;3.92;51.35;102177.31;5075586;28;20037;-71
2022/04/02 08:55:58;;;;;;;7.40;2.65;;;;;;;3.97;51.06;102172.41;5075494;28;20052;-71
2022/04/02 08:58:51;;;;;;;5.90;2.15;;;;;;;4.43;50.96;102182.13;5076012;28;20044;-71
2022/04/02 09:01:30;;;;;;;8.85;2.08;;;;;;;4.35;50.48;102177.28;5070538;28;20131;-75
2022/04/02 09:04:37;;;;;;;4.55;2.17;;;;;;;4.81;48.97;102168.78;5075559;28;20086;-76
2022/04/02 09:07:30;;;;;;;7.68;2.42;;;;;;;5.19;49.57;102178.75;5075959;28;20048;-75
2022/04/02 09:10:40;;;;;;;4.20;2.35;;;;;;;5.61;49.10;102170.63;5075752;28;20055;-75
2022/04/02 09:13:40;;;;;;;10.70;2.58;;;;;;;5.95;47.79;102170.75;5076017;28;20131;-73
2022/04/02 09:16:13;;;;;;;6.95;2.28;;;;;;;6.29;48.02;102176.00;5075528;28;20102;-72
2022/04/02 09:19:09;;;;;;;6.43;2.60;;;;;;;6.74;46.39;102173.13;5074668;28;20051;-75
2022/04/02 09:22:05;;;;;;;4.50;2.58;;;;;;;6.69;43.75;102179.81;5075731;28;20103;-76
2022/04/02 09:25:05;;;;;;;3.47;2.13;;;;;;;6.63;43.72;102171.69;5075150;28;20091;-74
2022/04/02 09:28:09;;;;;;;6.00;2.63;;;;;;;6.82;42.56;102182.22;5042588;28;20094;-76
2022/04/02 09:31:25;;;;;;;6.72;2.83;;;;;;;6.65;42.19;102182.19;5027515;28;20116;-74
2022/04/02 09:34:30;;;;;;;6.38;2.53;;;;;;;6.19;42.87;102174.66;4992648;28;20061;-74
2022/04/02 09:37:05;;;;;;;6.00;2.38;;;;;;;6.46;43.35;102180.34;5059813;28;20059;-75
2022/04/02 09:39:54;;;;;;;4.45;2.33;;;;;;;6.48;42.76;102186.53;5078881;28;20076;-74
2022/04/02 09:42:35;;;;;;;6.88;2.28;;;;;;;6.76;42.27;102179.31;5078901;28;20100;-75
2022/04/02 09:45:09;;;;;;;3.03;2.00;;;;;;;7.01;42.39;102175.28;5079813;28;20056;-77
2022/04/02 09:48:07;;;;;;;7.07;2.58;;;;;;;6.87;43.36;102185.06;5080009;28;20101;-72
2022/04/02 09:50:37;;;;;;;3.95;2.20;;;;;;;6.77;42.27;102188.00;5076771;28;20100;-75
2022/04/02 09:53:24;;;;;;;4.68;2.25;;;;;;;6.53;41.83;102196.38;5080628;28;20041;-75
2022/04/02 09:56:22;;;;;;;3.45;2.30;;;;;;;5.97;42.82;102193.47;5080721;28;20052;-76
2022/04/02 09:59:05;;;;;;;6.88;2.40;;;;;;;6.83;43.95;102189.22;5079831;28;20090;-75
2022/04/02 10:01:39;;;;;;;7.15;2.22;;;;;;;7.05;42.60;102185.06;5080812;28;20048;-75
2022/04/02 10:04:21;;;;;;;;;;;;;;;7.35;42.82;102186.50;5079751;28;20048;-74
2022/04/02 10:06:57;;;;;;;5.80;2.40;;;;;;;7.74;41.49;102186.59;5078012;28;19925;-73
2022/04/02 10:09:34;;;;;;;4.32;1.83;;;;;;;7.68;41.21;102188.91;5077651;28;20045;-73
2022/04/02 10:12:06;;;;;;;3.42;2.00;;;;;;;7.90;41.82;102175.13;5076312;28;20080;-74
2022/04/02 10:14:35;;;;;;;10.50;2.75;;;;;;;8.06;41.92;102186.34;5075013;28;20059;-74
2022/04/02 10:17:08;;;;;;;3.00;2.08;;;;;;;7.79;41.10;102185.97;5075272;28;20045;-74
2022/04/02 10:19:38;;;;;;;6.28;2.65;;;;;;;7.90;42.52;102189.09;5075159;28;20139;-74
2022/04/02 10:22:10;;;;;;;4.82;2.40;;;;;;;7.88;40.00;102180.28;5074723;28;20049;-74
2022/04/02 10:24:39;;;;;;;6.85;2.42;;;;;;;7.84;41.35;102167.91;5075880;28;20057;-75
2022/04/02 10:27:11;;;;;;;5.03;2.17;;;;;;;8.19;41.08;102172.09;5075434;28;20056;-74
2022/04/02 10:30:07;;;;;;;6.13;2.22;;;;;;;7.96;40.91;102170.19;5074721;28;20098;-73
2022/04/02 10:32:54;;;;;;;2.88;1.75;;;;;;;7.32;39.13;102185.47;5065867;28;20060;-73
2022/04/02 10:35:24;;;;;;;6.90;2.80;;;;;;;7.54;38.95;102177.84;5075002;28;20060;-74
2022/04/02 10:38:09;;;;;;;4.72;2.03;;;;;;;7.83;39.96;102179.19;5075189;28;20144;-74
2022/04/02 10:40:44;;;;;;;3.85;1.98;;;;;;;7.96;39.10;102176.28;5074408;28;20055;-73
2022/04/02 10:43:25;;;;;;;4.03;2.78;;;;;;;7.39;40.06;102188.44;5066695;28;20044;-74
2022/04/02 10:45:53;;;;;;;4.75;2.30;;;;;;;7.15;40.78;102182.09;5074373;28;20053;-73
2022/04/02 10:48:28;;;;;;;4.60;1.80;;;;;;;6.61;39.53;102181.13;5074605;28;20060;-73
2022/04/02 10:50:58;;;;;;;3.17;2.25;;;;;;;6.64;40.93;102180.41;5074641;28;20048;-76
2022/04/02 10:53:31;;;;;;;4.97;2.22;;;;;;;6.77;41.36;102188.00;5074229;28;20051;-73
2022/04/02 10:56:02;;;;;;;3.30;2.23;;;;;;;6.40;41.56;102195.69;5074485;28;20060;-73
2022/04/02 10:58:36;;;;;;;;;;;;;;;6.05;42.40;102194.75;5074690;28;20056;-73
2022/04/02 11:01:06;;;;;;;4.30;2.17;;;;;;;6.78;43.20;102190.69;5074287;28;19924;-73
2022/04/02 11:03:41;;;;;;;3.70;2.17;;;;;;;7.30;42.01;102185.41;5074529;28;20045;-73
2022/04/02 11:06:11;;;;;;;3.45;2.20;;;;;;;7.50;41.20;102192.47;5074336;28;20054;-74
2022/04/02 11:08:40;;;;;;;5.97;2.03;;;;;;;7.41;41.61;102189.41;5073705;28;20557;-75
2022/04/02 11:11:23;;;;;;;4.13;2.38;;;;;;;7.80;40.31;102187.75;5074646;28;20060;-73
2022/04/02 11:14:01;;;;;;;5.43;2.23;;;;;;;8.39;40.35;102180.81;5076182;28;20041;-74
2022/04/02 11:16:41;;;;;;;4.32;2.50;;;;;;;8.98;40.43;102182.44;5078890;28;20056;-73
2022/04/02 11:22:05;;;;;;;2.58;1.90;;;;;;;9.23;38.10;102179.09;5078043;28;20145;-73
2022/04/02 11:24:41;;;;;;;3.88;2.60;;;;;;;9.32;39.24;102177.75;5077680;28;20052;-73
2022/04/02 11:27:24;;;;;;;4.53;1.98;;;;;;;9.27;37.68;102176.66;5077590;28;20411;-75
2022/04/02 11:29:53;;;;;;;4.82;2.10;;;;;;;8.34;37.22;102182.34;5077652;28;20075;-73
2022/04/02 11:32:25;;;;;;;3.28;2.03;;;;;;;8.10;37.99;102185.66;5077780;28;20076;-74
2022/04/02 11:35:01;;;;;;;2.35;2.10;;;;;;;8.26;37.42;102174.16;5077914;28;20065;-76
2022/04/02 11:37:36;;;;;;;3.75;2.10;;;;;;;8.60;38.49;102171.28;5077865;28;20052;-75
2022/04/02 11:40:12;;;;;;;4.72;2.20;;;;;;;8.73;38.60;102162.22;5077975;28;20071;-75
2022/04/02 11:42:55;;;;;;;3.58;2.00;;;;;;;8.99;38.95;102166.81;5077718;28;20048;-74
2022/04/02 11:45:31;;;;;;;4.75;2.30;;;;;;;9.00;39.16;102159.84;5077932;28;20356;-76
2022/04/02 11:48:08;;;;;;;3.90;2.08;;;;;;;8.91;37.20;102181.31;5077520;28;20047;-76
2022/04/02 11:50:40;;;;;;;4.35;2.08;;;;;;;8.78;36.98;102182.50;5077087;28;20041;-73
2022/04/02 11:53:08;;;;;;;4.57;2.35;;;;;;;8.94;38.04;102177.91;5076379;28;20049;-73
2022/04/02 11:55:40;;;;;;;7.53;2.20;;;;;;;9.10;37.91;102181.22;5076643;28;20064;-75
2022/04/02 11:58:09;;;;;;;3.65;2.42;;;;;;;8.90;37.34;102181.22;5077476;28;20064;-72
2022/04/02 12:00:39;;;;;;;2.63;1.88;;;;;;;9.24;37.48;102179.16;5077003;28;20048;-75
2022/04/02 12:03:21;;;;;;;3.47;2.35;;;;;;;8.97;37.97;102178.94;5077756;28;20087;-76
2022/04/02 12:05:53;;;;;;;3.95;2.60;;;;;;;9.22;37.41;102175.59;5076867;28;20124;-73
2022/04/02 12:08:30;;;;;;;4.63;2.20;;;;;;;9.46;37.21;102170.38;5077295;28;20056;-75